Time;durP1;ratioP1;P1;durP2;ratioP2;P2;SDS_P1;SDS_P2;PMS_P1;PMS_P2;Temp;Humidity;BMP_temperature;BMP_pressure;BME280_temperature;BME280_humidity;BME280_pressure;Samples;Min_cycle;Max_cycle;Signal;HPM_P1;HPM_P2
2024/01/02 00:02:17;;;;;;;53.97;33.30;;;;;;;7.98;92.05;99267.06;5031427;28;20198;-61
2024/01/02 00:04:44;;;;;;;51.73;33.87;;;;;;;8.03;91.53;99269.97;5029010;28;20251;-62
2024/01/02 00:07:11;;;;;;;53.67;32.27;;;;;;;8.03;91.21;99269.97;5011405;28;20248;-62
2024/01/02 00:09:37;;;;;;;47.90;31.83;;;;;;;8.06;91.33;99264.31;5011368;28;20581;-63
2024/01/02 00:12:07;;;;;;;51.40;32.27;;;;;;;8.09;91.43;99271.88;5011622;28;20205;-63
2024/01/02 00:14:34;;;;;;;48.83;30.43;;;;;;;8.08;91.39;99270.25;5011740;28;20643;-63
2024/01/02 00:17:02;;;;;;;46.30;31.30;;;;;;;8.05;90.31;99267.97;5031028;28;20664;-63
2024/01/02 00:19:29;;;;;;;47.07;29.67;;;;;;;8.06;90.96;99275.72;5031200;28;20283;-63
2024/01/02 00:21:56;;;;;;;51.13;30.20;;;;;;;8.05;91.18;99262.66;5031279;28;20193;-62
2024/01/02 00:24:22;;;;;;;48.73;31.27;;;;;;;8.07;90.60;99279.16;5030942;28;20193;-62
2024/01/02 00:26:49;;;;;;;48.93;30.97;;;;;;;7.96;91.11;99263.78;5027156;28;20267;-62
2024/01/02 00:29:16;;;;;;;48.70;28.67;;;;;;;7.98;91.18;99261.75;5011429;28;20304;-62
2024/01/02 00:31:44;;;;;;;48.37;30.13;;;;;;;7.96;91.75;99255.84;5011157;28;20240;-62
2024/01/02 00:34:12;;;;;;;42.80;27.30;;;;;;;7.98;91.66;99245.91;5011363;28;20194;-63
2024/01/02 00:36:39;;;;;;;50.23;30.03;;;;;;;7.96;91.12;99250.56;5013737;28;20233;-62
2024/01/02 00:39:06;;;;;;;45.97;29.03;;;;;;;7.94;90.57;99255.19;5032782;28;20217;-62
2024/01/02 00:41:33;;;;;;;49.57;28.57;;;;;;;7.83;90.31;99259.13;5034353;28;20676;-62
2024/01/02 00:44:00;;;;;;;49.80;27.87;;;;;;;7.64;92.42;99254.41;5034226;28;20209;-62
2024/01/02 00:46:26;;;;;;;43.03;29.37;;;;;;;7.59;91.91;99263.91;5034586;28;20197;-62
2024/01/02 00:48:53;;;;;;;40.37;26.67;;;;;;;7.61;92.92;99264.53;5034541;28;20197;-62
2024/01/02 00:51:21;;;;;;;41.60;28.17;;;;;;;7.62;92.30;99271.44;5031275;28;20299;-62
2024/01/02 00:53:48;;;;;;;43.60;27.43;;;;;;;7.58;92.74;99270.19;5014583;28;20198;-63
2024/01/02 00:56:15;;;;;;;42.80;26.83;;;;;;;7.55;91.58;99262.63;5014410;28;20595;-63
2024/01/02 00:58:42;;;;;;;49.00;28.40;;;;;;;7.55;91.96;99250.22;5014644;28;20291;-62
2024/01/02 01:01:08;;;;;;;43.00;27.60;;;;;;;7.51;91.46;99256.88;5014497;28;20252;-62
2024/01/02 01:03:35;;;;;;;46.77;27.57;;;;;;;7.52;91.99;99255.06;5020286;28;20636;-62
2024/01/02 01:06:03;;;;;;;43.27;28.80;;;;;;;7.47;92.27;99252.94;5033839;28;20197;-63
2024/01/02 01:08:31;;;;;;;45.13;28.30;;;;;;;7.50;91.54;99267.63;5034205;28;20201;-63
2024/01/02 01:10:57;;;;;;;42.73;27.43;;;;;;;7.50;91.80;99263.16;5033744;28;20691;-63
2024/01/02 01:13:25;;;;;;;42.67;27.93;;;;;;;7.49;91.59;99266.00;5015653;28;20240;-63
2024/01/02 01:15:51;;;;;;;40.50;26.27;;;;;;;7.48;90.79;99253.78;5014206;28;20260;-64
2024/01/02 01:18:18;;;;;;;51.33;29.53;;;;;;;7.46;90.92;99250.50;5013819;28;20218;-63
2024/01/02 01:20:45;;;;;;;47.93;30.13;;;;;;;7.48;91.32;99253.78;5015099;28;20194;-63
2024/01/02 01:23:12;;;;;;;48.03;29.90;;;;;;;7.41;91.90;99253.69;5013687;28;20259;-64
2024/01/02 01:25:40;;;;;;;52.20;29.37;;;;;;;7.30;92.05;99250.66;5014063;28;20252;-63
2024/01/02 01:28:06;;;;;;;44.33;29.07;;;;;;;7.22;93.68;99253.41;5013586;28;20696;-64
2024/01/02 01:30:33;;;;;;;45.50;28.70;;;;;;;7.23;93.45;99257.69;5014158;28;20180;-63
2024/01/02 01:33:00;;;;;;;44.67;28.47;;;;;;;7.18;94.26;99250.28;5013667;28;20197;-63
2024/01/02 01:35:27;;;;;;;43.97;28.73;;;;;;;7.22;93.96;99248.13;5013480;28;20202;-62
2024/01/02 01:37:54;;;;;;;49.63;28.97;;;;;;;7.20;94.11;99245.66;5026024;28;20221;-63
2024/01/02 01:40:20;;;;;;;51.13;29.40;;;;;;;7.17;93.61;99245.19;5032908;28;20193;-64
2024/01/02 01:42:48;;;;;;;47.63;30.20;;;;;;;7.20;94.67;99231.63;5033179;28;20294;-63
2024/01/02 01:45:15;;;;;;;50.77;30.40;;;;;;;7.13;94.77;99230.69;5033437;28;20259;-63
2024/01/02 01:47:42;;;;;;;53.20;33.90;;;;;;;7.01;94.84;99234.78;5032683;28;20734;-64
2024/01/02 01:50:09;;;;;;;54.00;33.30;;;;;;;6.98;95.17;99235.97;5031913;28;20664;-62
2024/01/02 01:52:37;;;;;;;56.83;34.23;;;;;;;6.95;95.88;99230.22;5032683;28;20201;-62
2024/01/02 01:55:05;;;;;;;53.37;32.97;;;;;;;6.88;96.08;99218.75;5033127;28;20201;-63
2024/01/02 01:57:32;;;;;;;48.83;32.67;;;;;;;6.80;96.21;99221.44;5032836;28;20247;-63
2024/01/02 02:00:00;;;;;;;53.47;32.97;;;;;;;6.71;97.28;99217.25;5032713;28;20225;-64
2024/01/02 02:02:27;;;;;;;50.20;32.63;;;;;;;6.61;97.11;99217.47;5033126;28;20201;-63
2024/01/02 02:04:54;;;;;;;54.77;33.73;;;;;;;6.52;97.52;99215.91;5013273;28;20201;-64
2024/01/02 02:07:21;;;;;;;58.50;34.30;;;;;;;6.54;98.10;99205.19;5013279;28;20251;-63
2024/01/02 02:09:47;;;;;;;55.00;33.80;;;;;;;6.52;98.90;99201.91;5012898;28;20631;-62
2024/01/02 02:12:15;;;;;;;54.80;34.67;;;;;;;6.55;99.17;99198.91;5013226;28;20197;-63
2024/01/02 02:14:41;;;;;;;57.27;36.23;;;;;;;6.56;98.57;99190.00;5013086;28;20226;-63
2024/01/02 02:17:10;;;;;;;60.57;35.17;;;;;;;6.53;98.42;99193.00;5032108;28;20258;-62
2024/01/02 02:19:36;;;;;;;49.43;32.87;;;;;;;6.63;98.40;99190.94;5032333;28;20216;-62
2024/01/02 02:22:04;;;;;;;58.10;33.53;;;;;;;6.73;98.41;99189.69;5032733;28;20555;-62
2024/01/02 02:24:32;;;;;;;54.33;34.10;;;;;;;6.69;97.81;99183.13;5021234;28;20197;-62
2024/01/02 02:27:00;;;;;;;59.30;34.67;;;;;;;6.62;97.38;99187.47;5012623;28;20194;-65
2024/01/02 02:29:27;;;;;;;54.33;33.37;;;;;;;6.69;97.98;99184.94;5012904;28;20239;-63
2024/01/02 02:31:53;;;;;;;56.87;34.10;;;;;;;6.74;98.23;99193.16;5012493;28;20194;-63
2024/01/02 02:34:20;;;;;;;48.90;32.07;;;;;;;6.85;98.08;99192.69;5021759;28;20638;-63
2024/01/02 02:36:47;;;;;;;54.47;33.27;;;;;;;6.93;98.66;99196.09;5029060;28;20193;-64
2024/01/02 02:39:14;;;;;;;53.43;33.80;;;;;;;6.98;97.59;99196.34;5012408;28;20701;-63
2024/01/02 02:41:42;;;;;;;52.07;32.80;;;;;;;7.05;97.31;99199.09;5012665;28;20201;-63
2024/01/02 02:44:09;;;;;;;56.00;33.37;;;;;;;7.08;96.98;99206.66;5012630;28;20284;-65
2024/01/02 02:46:36;;;;;;;51.13;32.23;;;;;;;6.98;96.96;99199.00;5023184;28;20695;-63
2024/01/02 02:49:03;;;;;;;52.07;33.33;;;;;;;7.06;96.45;99227.16;5032290;28;20199;-63
2024/01/02 02:51:29;;;;;;;51.37;32.67;;;;;;;7.11;97.15;99224.78;5031880;28;20537;-63
2024/01/02 02:53:56;;;;;;;50.83;31.17;;;;;;;7.19;96.14;99222.06;5031915;28;20189;-63
2024/01/02 02:56:23;;;;;;;51.10;32.13;;;;;;;7.26;96.31;99217.72;5031893;28;20254;-63
2024/01/02 02:58:51;;;;;;;48.80;30.93;;;;;;;7.33;96.26;99203.59;5016965;28;20227;-64
2024/01/02 03:01:22;;;;;;;48.93;31.33;;;;;;;7.38;95.50;99205.66;5012182;28;20205;-63
2024/01/02 03:03:48;;;;;;;43.67;29.57;;;;;;;7.39;95.49;99207.31;5012053;28;20280;-64
2024/01/02 03:06:15;;;;;;;50.93;30.97;;;;;;;7.44;94.31;99202.31;5012196;28;20640;-63
2024/01/02 03:08:42;;;;;;;52.53;32.67;;;;;;;7.46;94.69;99208.22;5012394;28;20259;-62
2024/01/02 03:11:09;;;;;;;43.33;28.97;;;;;;;7.43;94.74;99200.69;5029171;28;20262;-62
2024/01/02 03:13:35;;;;;;;45.37;29.37;;;;;;;7.48;94.64;99208.88;5032040;28;20193;-62
2024/01/02 03:16:04;;;;;;;47.63;30.20;;;;;;;7.54;95.04;99210.75;5031473;28;20247;-63
2024/01/02 03:18:30;;;;;;;43.23;27.93;;;;;;;7.50;95.12;99220.06;5031503;28;20221;-63
2024/01/02 03:20:57;;;;;;;43.40;28.33;;;;;;;7.46;94.63;99213.50;5029481;28;20193;-63
2024/01/02 03:23:24;;;;;;;42.60;28.93;;;;;;;7.47;94.95;99225.72;5012107;28;20194;-63
2024/01/02 03:25:50;;;;;;;45.13;29.30;;;;;;;7.49;94.88;99229.00;5011669;28;20202;-63
2024/01/02 03:28:17;;;;;;;45.43;30.00;;;;;;;7.44;94.99;99226.09;5011855;28;20358;-62
2024/01/02 03:30:44;;;;;;;46.23;29.47;;;;;;;7.35;95.95;99211.34;5025392;28;20243;-62
2024/01/02 03:33:12;;;;;;;43.47;27.67;;;;;;;7.35;96.21;99225.34;5031685;28;20197;-63
2024/01/02 03:35:38;;;;;;;44.23;28.43;;;;;;;7.21;96.44;99215.59;5031618;28;20194;-62
2024/01/02 03:38:05;;;;;;;45.00;28.50;;;;;;;7.22;96.73;99222.53;5017533;28;20244;-62
2024/01/02 03:40:32;;;;;;;44.77;29.43;;;;;;;7.23;96.76;99207.50;5022910;28;20213;-62
2024/01/02 03:42:59;;;;;;;46.20;28.20;;;;;;;7.22;96.02;99205.88;5028881;28;20193;-62
2024/01/02 03:45:26;;;;;;;42.63;29.80;;;;;;;7.24;96.94;99199.41;5031309;28;20554;-62
2024/01/02 03:47:52;;;;;;;45.13;30.83;;;;;;;7.23;96.23;99202.22;5031252;28;20688;-62
2024/01/02 03:50:20;;;;;;;42.57;28.30;;;;;;;7.17;96.15;99197.66;5031510;28;20553;-63
2024/01/02 03:52:47;;;;;;;44.37;28.87;;;;;;;7.11;96.06;99190.47;5022762;28;20248;-63
2024/01/02 03:55:14;;;;;;;43.53;27.53;;;;;;;7.16;96.18;99185.44;5011402;28;20197;-64
2024/01/02 03:57:40;;;;;;;38.27;26.73;;;;;;;7.16;95.67;99182.81;5011415;28;20197;-63
2024/01/02 04:00:08;;;;;;;38.07;26.47;;;;;;;7.12;95.94;99168.34;5011712;28;20295;-63
2024/01/02 04:02:35;;;;;;;42.67;25.90;;;;;;;7.15;95.89;99170.63;5011403;28;20248;-63
2024/01/02 04:05:04;;;;;;;33.63;25.93;;;;;;;7.23;96.45;99173.16;5020573;28;20193;-63
2024/01/02 04:07:32;;;;;;;39.07;27.50;;;;;;;7.32;96.47;99185.28;5031458;28;20227;-63
2024/01/02 04:09:58;;;;;;;39.47;26.47;;;;;;;7.37;96.43;99190.81;5031455;28;20562;-63
2024/01/02 04:12:25;;;;;;;41.00;26.40;;;;;;;7.43;95.22;99198.03;5031279;28;20193;-63
2024/01/02 04:14:52;;;;;;;38.43;27.67;;;;;;;7.43;95.17;99190.09;5034605;28;20735;-62
2024/01/02 04:17:19;;;;;;;37.67;26.20;;;;;;;7.53;95.32;99193.28;5024134;28;20200;-63
2024/01/02 04:19:45;;;;;;;33.20;24.73;;;;;;;7.57;94.88;99197.19;5014943;28;20701;-63
2024/01/02 04:22:12;;;;;;;35.47;25.87;;;;;;;7.58;95.34;99202.28;5015177;28;20198;-63
2024/01/02 04:24:40;;;;;;;37.20;25.17;;;;;;;7.60;94.27;99187.06;5014985;28;20730;-63
2024/01/02 04:27:07;;;;;;;35.70;25.03;;;;;;;7.69;94.75;99183.34;5014827;28;20205;-63
2024/01/02 04:29:33;;;;;;;36.70;24.33;;;;;;;7.76;94.75;99193.97;5016539;28;20696;-63
2024/01/02 04:32:00;;;;;;;36.17;24.50;;;;;;;7.81;93.80;99197.72;5015022;28;20248;-62
2024/01/02 04:34:27;;;;;;;41.70;25.57;;;;;;;7.86;93.51;99200.59;5015088;28;20198;-62
2024/01/02 04:36:53;;;;;;;37.03;25.50;;;;;;;7.88;93.69;99213.66;5018815;28;20247;-63
2024/01/02 04:39:22;;;;;;;35.93;24.57;;;;;;;7.88;93.35;99203.06;5034047;28;20217;-62
2024/01/02 04:41:52;;;;;;;32.90;23.40;;;;;;;7.85;93.70;99204.25;5034577;28;20196;-63
2024/01/02 04:44:18;;;;;;;35.60;23.93;;;;;;;7.86;92.79;99207.72;5034365;28;20267;-63
2024/01/02 04:46:45;;;;;;;35.30;24.40;;;;;;;7.80;92.52;99214.56;5034552;28;20266;-63
2024/01/02 04:49:13;;;;;;;35.13;23.03;;;;;;;7.82;93.96;99203.81;5034246;28;20232;-63
2024/01/02 04:51:39;;;;;;;37.93;24.83;;;;;;;7.84;93.82;99202.59;5019440;28;20194;-63
2024/01/02 04:54:07;;;;;;;34.03;23.83;;;;;;;7.88;93.45;99205.72;5014693;28;20248;-63
2024/01/02 04:56:34;;;;;;;36.07;25.10;;;;;;;7.91;93.62;99208.78;5014522;28;20205;-63
2024/01/02 04:59:03;;;;;;;37.47;25.60;;;;;;;7.96;93.25;99221.47;5014554;28;20225;-63
2024/01/02 05:01:30;;;;;;;38.37;26.80;;;;;;;7.96;93.80;99210.91;5014194;28;20317;-65
2024/01/02 05:03:57;;;;;;;44.67;28.17;;;;;;;7.99;93.74;99207.84;5033335;28;20194;-62
2024/01/02 05:06:24;;;;;;;42.23;29.23;;;;;;;7.98;93.31;99203.59;5034286;28;20193;-63
2024/01/02 05:08:51;;;;;;;43.87;26.80;;;;;;;8.00;92.39;99212.16;5034112;28;20266;-63
2024/01/02 05:11:17;;;;;;;40.33;27.00;;;;;;;7.97;92.47;99207.25;5034151;28;20266;-63
2024/01/02 05:13:44;;;;;;;32.50;25.53;;;;;;;7.98;92.79;99214.16;5033035;28;20255;-63
2024/01/02 05:16:12;;;;;;;35.83;26.33;;;;;;;8.02;93.09;99199.56;5013902;28;20243;-62
2024/01/02 05:18:39;;;;;;;45.40;28.70;;;;;;;8.05;93.41;99201.84;5013841;28;20198;-62
2024/01/02 05:21:07;;;;;;;40.63;27.70;;;;;;;8.08;93.10;99204.91;5013791;28;20271;-62
2024/01/02 05:23:34;;;;;;;40.50;27.60;;;;;;;8.10;93.25;99202.09;5013667;28;20198;-63
2024/01/02 05:26:01;;;;;;;35.20;24.93;;;;;;;8.11;93.47;99201.91;5013703;28;20735;-63
2024/01/02 05:28:27;;;;;;;38.37;26.93;;;;;;;8.06;92.30;99206.13;5032560;28;20628;-63
2024/01/02 05:30:54;;;;;;;44.20;27.47;;;;;;;7.97;92.46;99212.53;5033420;28;20256;-63
2024/01/02 05:33:22;;;;;;;39.23;25.80;;;;;;;7.90;92.08;99212.44;5033711;28;20201;-63
2024/01/02 05:35:49;;;;;;;38.07;27.17;;;;;;;7.95;93.51;99210.06;5033901;28;20692;-63
2024/01/02 05:38:16;;;;;;;48.47;27.30;;;;;;;7.95;93.75;99209.22;5018251;28;20229;-64
2024/01/02 05:40:42;;;;;;;50.37;29.23;;;;;;;7.96;93.42;99216.97;5033029;28;20715;-63
2024/01/02 05:43:09;;;;;;;49.20;29.77;;;;;;;8.01;93.27;99219.88;5033504;28;20264;-63
2024/01/02 05:45:36;;;;;;;50.87;30.87;;;;;;;8.01;93.41;99224.38;5033045;28;20193;-63
2024/01/02 05:48:03;;;;;;;46.23;30.67;;;;;;;8.06;93.08;99227.28;5020599;28;20200;-63
2024/01/02 05:50:31;;;;;;;46.70;29.87;;;;;;;8.05;92.05;99225.63;5013665;28;20205;-64
2024/01/02 05:52:58;;;;;;;47.07;31.07;;;;;;;8.06;91.72;99241.34;5013193;28;20194;-63
2024/01/02 05:55:25;;;;;;;47.50;30.83;;;;;;;8.08;92.58;99257.03;5017217;28;20660;-63
2024/01/02 05:57:51;;;;;;;44.80;30.07;;;;;;;8.06;92.54;99248.44;5033164;28;20224;-64
2024/01/02 06:00:19;;;;;;;50.47;30.73;;;;;;;8.08;92.11;99246.44;5033154;28;20217;-64
2024/01/02 06:02:45;;;;;;;47.40;30.70;;;;;;;8.11;91.84;99252.16;5033137;28;20561;-63
2024/01/02 06:05:12;;;;;;;49.20;31.90;;;;;;;8.13;91.93;99249.34;5031469;28;20251;-65
2024/01/02 06:07:40;;;;;;;51.17;30.97;;;;;;;8.17;92.43;99240.81;5012827;28;20251;-63
2024/01/02 06:10:08;;;;;;;50.07;31.40;;;;;;;8.22;92.05;99242.94;5013237;28;20204;-64
2024/01/02 06:12:34;;;;;;;43.40;27.80;;;;;;;8.22;92.18;99258.81;5012842;28;20256;-63
2024/01/02 06:15:02;;;;;;;43.13;28.67;;;;;;;8.17;91.64;99262.00;5028871;28;20266;-62
2024/01/02 06:17:29;;;;;;;39.77;27.50;;;;;;;8.14;92.26;99269.50;5032772;28;20189;-63
2024/01/02 06:19:56;;;;;;;41.83;26.60;;;;;;;8.10;92.41;99274.34;5032831;28;20650;-63
2024/01/02 06:22:23;;;;;;;39.50;29.03;;;;;;;8.11;92.34;99273.31;5032694;28;20232;-65
2024/01/02 06:24:51;;;;;;;40.57;27.33;;;;;;;8.15;92.23;99279.88;5019152;28;20201;-63
2024/01/02 06:27:18;;;;;;;42.63;28.93;;;;;;;8.18;91.78;99282.16;5012912;28;20256;-63
2024/01/02 06:29:44;;;;;;;38.43;26.57;;;;;;;8.20;91.93;99285.44;5012872;28;20234;-63
2024/01/02 06:32:11;;;;;;;43.23;28.37;;;;;;;8.23;91.31;99282.47;5022946;28;20193;-64
2024/01/02 06:34:38;;;;;;;41.40;27.70;;;;;;;8.30;91.36;99287.81;5027585;28;20268;-63
2024/01/02 06:37:05;;;;;;;39.87;27.37;;;;;;;8.29;91.53;99291.47;5017897;28;20250;-65
2024/01/02 06:39:32;;;;;;;39.27;27.40;;;;;;;8.25;90.75;99282.28;5018487;28;20221;-64
2024/01/02 06:42:00;;;;;;;44.60;27.60;;;;;;;8.26;91.84;99281.25;5012655;28;20194;-65
2024/01/02 06:44:27;;;;;;;39.33;26.70;;;;;;;8.26;91.35;99275.97;5023897;28;20231;-65
2024/01/02 06:46:53;;;;;;;42.03;28.07;;;;;;;8.32;90.80;99288.44;5032087;28;20193;-65
2024/01/02 06:49:20;;;;;;;40.80;27.17;;;;;;;8.35;90.38;99285.44;5031783;28;20220;-63
2024/01/02 06:51:47;;;;;;;39.13;25.73;;;;;;;8.39;90.89;99274.28;5032202;28;20193;-65
2024/01/02 06:54:13;;;;;;;45.13;29.23;;;;;;;8.48;91.27;99280.28;5031851;28;20259;-64
2024/01/02 06:56:40;;;;;;;45.73;28.57;;;;;;;8.49;90.22;99272.16;5031893;28;20197;-65
2024/01/02 06:59:08;;;;;;;37.80;27.10;;;;;;;8.52;90.45;99276.25;5023760;28;20206;-64
2024/01/02 07:01:36;;;;;;;49.93;30.60;;;;;;;8.54;90.46;99263.66;5024516;28;20224;-65
2024/01/02 07:04:03;;;;;;;82.87;52.87;;;;;;;8.59;90.03;99258.59;5030196;28;20672;-64
2024/01/02 07:06:29;;;;;;;42.07;28.47;;;;;;;8.53;90.05;99251.44;5018856;28;20189;-64
2024/01/02 07:08:56;;;;;;;59.77;39.87;;;;;;;8.65;89.94;99249.91;5020133;28;20678;-65
2024/01/02 07:11:23;;;;;;;67.90;42.43;;;;;;;8.45;89.92;99243.63;5017197;28;20251;-65
2024/01/02 07:13:49;;;;;;;51.20;34.00;;;;;;;8.43;90.06;99237.69;5011980;28;20201;-65
2024/01/02 07:16:17;;;;;;;57.63;34.77;;;;;;;8.40;90.94;99243.34;5013594;28;20201;-65
2024/01/02 07:18:44;;;;;;;54.70;33.83;;;;;;;8.45;90.45;99243.63;5011733;28;20202;-64
2024/01/02 07:21:11;;;;;;;48.43;33.13;;;;;;;8.58;91.07;99243.75;5011173;28;20735;-64
2024/01/02 07:23:38;;;;;;;47.57;33.40;;;;;;;8.62;90.11;99245.00;5012205;28;20212;-64
2024/01/02 07:26:04;;;;;;;51.83;33.67;;;;;;;8.68;91.28;99276.00;5026208;28;20298;-64
2024/01/02 07:28:31;;;;;;;50.40;33.63;;;;;;;8.59;90.85;99279.78;5030457;28;20260;-62
2024/01/02 07:30:58;;;;;;;54.10;34.13;;;;;;;8.68;90.76;99281.28;5030513;28;20631;-68
2024/01/02 07:33:26;;;;;;;57.27;36.43;;;;;;;8.74;90.62;99280.56;5030548;28;20215;-68
2024/01/02 07:35:53;;;;;;;55.93;36.47;;;;;;;8.82;90.71;99275.13;5018730;28;20197;-68
2024/01/02 07:38:20;;;;;;;63.20;38.73;;;;;;;8.90;90.51;99267.06;5028312;28;20712;-67
2024/01/02 07:40:47;;;;;;;53.47;36.47;;;;;;;9.04;90.39;99268.78;5030814;28;20217;-67
2024/01/02 07:43:14;;;;;;;63.80;37.93;;;;;;;9.20;89.20;99295.00;5030797;28;20201;-68
2024/01/02 07:45:40;;;;;;;59.00;37.20;;;;;;;9.33;89.81;99293.28;5021701;28;20256;-67
2024/01/02 07:48:08;;;;;;;54.07;34.00;;;;;;;9.41;87.50;99300.25;5013499;28;20662;-68
2024/01/02 07:50:36;;;;;;;52.77;36.07;;;;;;;9.46;86.84;99300.50;5025202;28;20258;-69
2024/01/02 07:53:02;;;;;;;54.23;34.43;;;;;;;9.61;87.34;99301.22;5028240;28;20707;-67
2024/01/02 07:55:29;;;;;;;52.37;34.70;;;;;;;9.71;86.63;99304.31;5027262;28;20201;-69
2024/01/02 07:57:56;;;;;;;54.57;34.80;;;;;;;9.84;86.58;99302.56;5031333;28;20213;-70
2024/01/02 08:00:23;;;;;;;56.57;35.83;;;;;;;9.92;85.11;99320.16;5025732;28;20236;-73
2024/01/02 08:02:49;;;;;;;54.90;36.53;;;;;;;9.85;85.99;99314.03;5014385;28;20190;-68
2024/01/02 08:05:17;;;;;;;49.53;34.47;;;;;;;9.86;84.80;99318.31;5020944;28;20193;-67
2024/01/02 08:07:45;;;;;;;54.90;35.47;;;;;;;9.88;85.62;99325.06;5027059;28;20660;-68
2024/01/02 08:10:11;;;;;;;54.40;31.87;;;;;;;10.04;86.15;99329.22;5033066;28;20207;-68
2024/01/02 08:12:38;;;;;;;48.50;32.83;;;;;;;10.33;86.63;99328.97;5034316;28;20197;-69
2024/01/02 08:15:05;;;;;;;50.73;32.33;;;;;;;10.42;83.46;99346.38;5031059;28;20202;-64
2024/01/02 08:17:32;;;;;;;48.67;32.30;;;;;;;10.49;83.48;99355.16;5033712;28;20266;-66
2024/01/02 08:19:59;;;;;;;48.93;32.27;;;;;;;10.47;83.17;99351.91;5034204;28;20272;-65
2024/01/02 08:22:26;;;;;;;47.93;33.70;;;;;;;10.41;83.49;99358.00;5034609;28;20662;-64
2024/01/02 08:24:54;;;;;;;51.40;33.20;;;;;;;10.45;84.32;99354.75;5033381;28;20208;-67
2024/01/02 08:27:24;;;;;;;65.10;40.73;;;;;;;10.34;83.46;99357.16;5034109;28;20207;-65
2024/01/02 08:29:50;;;;;;;51.00;35.27;;;;;;;10.25;83.83;99358.34;5033643;28;20257;-66
2024/01/02 08:32:17;;;;;;;52.10;34.70;;;;;;;10.23;84.60;99355.06;5030517;28;20200;-62
2024/01/02 08:34:44;;;;;;;52.40;34.47;;;;;;;10.23;84.51;99344.44;5027544;28;20189;-64
2024/01/02 08:37:11;;;;;;;68.03;36.70;;;;;;;10.22;84.50;99348.13;5029631;28;20213;-64
2024/01/02 08:39:38;;;;;;;54.10;35.40;;;;;;;10.31;86.04;99357.56;5016703;28;20546;-68
2024/01/02 08:42:07;;;;;;;59.43;37.43;;;;;;;10.47;84.67;99363.31;5025093;28;20777;-63
2024/01/02 08:44:34;;;;;;;58.53;35.83;;;;;;;10.50;84.28;99367.44;5031600;28;20260;-63
2024/01/02 08:47:01;;;;;;;57.87;34.63;;;;;;;10.51;84.50;99366.44;5032731;28;20212;-64
2024/01/02 08:49:28;;;;;;;49.97;33.63;;;;;;;10.48;84.37;99369.47;5033159;28;20195;-64
2024/01/02 08:51:55;;;;;;;54.40;34.43;;;;;;;10.49;84.66;99368.44;5015773;28;20264;-65
2024/01/02 08:54:21;;;;;;;45.07;30.63;;;;;;;10.57;84.35;99376.25;5013752;28;20246;-63
2024/01/02 08:56:48;;;;;;;48.70;33.17;;;;;;;10.59;83.98;99374.22;5031028;28;20194;-64
2024/01/02 08:59:16;;;;;;;59.40;34.00;;;;;;;10.55;83.98;99375.63;5031788;28;20260;-63
2024/01/02 09:01:43;;;;;;;53.03;32.97;;;;;;;10.68;84.14;99379.16;5033065;28;20214;-65
2024/01/02 09:04:10;;;;;;;54.03;33.73;;;;;;;10.64;84.08;99379.75;5033207;28;20645;-63
2024/01/02 09:06:36;;;;;;;49.27;34.83;;;;;;;10.48;84.47;99366.81;5033557;28;20607;-63
2024/01/02 09:09:10;;;;;;;44.87;32.27;;;;;;;10.49;85.19;99371.94;5018888;28;20207;-63
2024/01/02 09:11:40;;;;;;;45.10;29.30;;;;;;;10.48;85.38;99364.16;5026889;28;20276;-63
2024/01/02 09:17:11;;;;;;;41.83;30.47;;;;;;;10.41;86.22;99363.31;5032243;28;20203;-64
2024/01/02 09:19:37;;;;;;;44.37;29.93;;;;;;;10.35;87.06;99364.09;5033578;28;20563;-65
2024/01/02 09:22:04;;;;;;;42.53;30.10;;;;;;;10.34;87.42;99357.16;5033396;28;20221;-64
2024/01/02 09:24:31;;;;;;;43.90;30.40;;;;;;;10.35;88.48;99359.63;5033386;28;20197;-64
2024/01/02 09:27:01;;;;;;;42.30;28.40;;;;;;;10.47;88.81;99358.03;5017249;28;20195;-64
2024/01/02 09:29:29;;;;;;;36.63;27.70;;;;;;;10.55;88.88;99347.22;5013249;28;20713;-64
2024/01/02 09:31:56;;;;;;;57.67;41.00;;;;;;;10.71;88.47;99359.34;5014518;28;20203;-64
2024/01/02 09:34:23;;;;;;;46.30;31.67;;;;;;;10.73;88.42;99351.97;5013790;28;20286;-64
2024/01/02 09:36:51;;;;;;;40.20;28.57;;;;;;;10.70;88.41;99357.69;5016195;28;20621;-64
2024/01/02 09:39:18;;;;;;;37.50;28.17;;;;;;;10.70;88.84;99357.69;5033304;28;20253;-64
2024/01/02 09:42:13;;;;;;;35.80;26.83;;;;;;;10.58;89.42;99352.16;5032444;28;20225;-64
2024/01/02 09:44:57;;;;;;;36.90;26.87;;;;;;;10.54;90.47;99358.06;5032889;28;20186;-64
2024/01/02 09:47:42;;;;;;;32.87;24.10;;;;;;;10.51;91.29;99353.16;5033242;28;20189;-65
2024/01/02 09:50:12;;;;;;;37.20;24.67;;;;;;;10.58;91.59;99354.00;5032925;28;20191;-65
2024/01/02 09:52:58;;;;;;;31.70;22.47;;;;;;;10.57;92.32;99352.34;5033204;28;20195;-64
2024/01/02 09:55:33;;;;;;;30.63;22.60;;;;;;;10.58;93.27;99348.69;5013459;28;20186;-64
2024/01/02 09:58:11;;;;;;;35.53;24.50;;;;;;;10.68;93.17;99351.78;5013296;28;20252;-63
2024/01/02 10:00:51;;;;;;;38.90;27.10;;;;;;;10.77;93.41;99347.91;5012972;28;20278;-63
2024/01/02 10:03:34;;;;;;;40.57;27.70;;;;;;;10.90;93.49;99347.94;5013397;28;20187;-64
2024/01/02 10:06:12;;;;;;;29.80;23.37;;;;;;;10.84;93.90;99348.75;5013414;28;20195;-64
2024/01/02 10:09:06;;;;;;;28.87;22.70;;;;;;;11.01;94.63;99350.00;5013033;28;20241;-64
2024/01/02 10:11:41;;;;;;;29.70;21.77;;;;;;;11.16;94.91;99347.16;5011905;28;20655;-64
2024/01/02 10:14:14;;;;;;;28.43;21.40;;;;;;;11.25;94.98;99340.63;5013672;28;20223;-65
2024/01/02 10:16:53;;;;;;;28.60;21.80;;;;;;;11.19;94.85;99326.28;5013784;28;20670;-64
2024/01/02 10:19:31;;;;;;;34.27;23.10;;;;;;;11.36;95.32;99343.50;5025879;28;20192;-65
2024/01/02 10:22:06;;;;;;;33.20;23.23;;;;;;;11.23;95.49;99332.84;5032251;28;20211;-63
2024/01/02 10:24:41;;;;;;;33.90;24.33;;;;;;;11.19;96.37;99323.63;5032668;28;20184;-64
2024/01/02 10:27:11;;;;;;;32.20;23.40;;;;;;;11.29;97.18;99326.72;5013166;28;20238;-64
2024/01/02 10:29:49;;;;;;;35.20;23.37;;;;;;;11.36;96.83;99310.75;5012834;28;20274;-64
2024/01/02 10:32:28;;;;;;;33.43;22.30;;;;;;;11.58;96.30;99318.31;5012730;28;20195;-64
2024/01/02 10:35:04;;;;;;;29.37;22.33;;;;;;;11.57;95.69;99318.53;5012714;28;20275;-64
2024/01/02 10:37:39;;;;;;;36.17;23.83;;;;;;;11.35;96.84;99293.97;5020499;28;20191;-64
2024/01/02 10:40:09;;;;;;;20.67;17.87;;;;;;;11.41;97.64;99317.13;5032436;28;20195;-64
2024/01/02 10:42:51;;;;;;;21.40;17.17;;;;;;;11.37;98.44;99307.91;5031808;28;20227;-64
2024/01/02 10:45:25;;;;;;;25.30;16.57;;;;;;;11.39;98.69;99305.84;5031899;28;20182;-65
2024/01/02 10:48:14;;;;;;;14.60;13.13;;;;;;;11.39;99.57;99303.19;5030275;28;20249;-64
2024/01/02 10:50:52;;;;;;;18.27;13.80;;;;;;;11.53;99.78;99302.16;5030936;28;20230;-64
2024/01/02 10:53:32;;;;;;;17.40;12.47;;;;;;;11.65;99.10;99292.56;5026620;28;20204;-65
2024/01/02 10:56:08;;;;;;;22.13;14.70;;;;;;;11.73;98.23;99302.16;5030345;28;20222;-67
2024/01/02 10:58:42;;;;;;;19.53;14.57;;;;;;;11.89;97.24;99307.03;5015445;28;20196;-66
2024/01/02 11:01:16;;;;;;;21.10;15.50;;;;;;;12.04;96.23;99304.97;5022550;28;20308;-66
2024/01/02 11:03:52;;;;;;;21.00;15.83;;;;;;;12.27;94.21;99306.09;5021735;28;20191;-65
2024/01/02 11:06:27;;;;;;;14.50;12.13;;;;;;;12.41;93.79;99310.31;5020404;28;20243;-63
2024/01/02 11:09:03;;;;;;;11.23;10.10;;;;;;;12.36;91.98;99312.81;5022229;28;20251;-63
2024/01/02 11:11:34;;;;;;;10.40;9.50;;;;;;;12.50;92.15;99301.03;5013310;28;20190;-65
2024/01/02 11:14:02;;;;;;;8.70;7.90;;;;;;;12.51;90.35;99292.03;5019904;28;20863;-61
2024/01/02 11:16:30;;;;;;;10.87;9.60;;;;;;;12.62;89.64;99303.88;5018458;28;20204;-60
2024/01/02 11:19:00;;;;;;;8.73;7.50;;;;;;;12.59;89.37;99302.47;5029044;28;20189;-61
2024/01/02 11:21:38;;;;;;;8.53;7.70;;;;;;;12.66;89.22;99287.22;5022349;28;20208;-61
2024/01/02 11:24:07;;;;;;;5.80;5.30;;;;;;;12.77;87.05;99286.56;5014954;28;20271;-63
2024/01/02 11:26:40;;;;;;;6.07;5.00;;;;;;;12.73;86.45;99288.00;5020788;28;20191;-64
2024/01/02 11:29:11;;;;;;;5.90;5.40;;;;;;;12.68;86.46;99282.53;5021538;28;20267;-63
2024/01/02 11:31:39;;;;;;;4.67;4.33;;;;;;;12.50;86.80;99279.72;5020338;28;20189;-62
2024/01/02 11:34:19;;;;;;;5.00;4.70;;;;;;;12.46;87.28;99273.19;5022282;28;20263;-63